Time;durP1;ratioP1;P1;durP2;ratioP2;P2;SDS_P1;SDS_P2;PMS_P1;PMS_P2;Temp;Humidity;BMP_temperature;BMP_pressure;BME280_temperature;BME280_humidity;BME280_pressure;Samples;Min_cycle;Max_cycle;Signal;HPM_P1;HPM_P2
2024/01/17 00:00:23;;;;;;;3.70;2.45;;;16.10;60.60;;;;;;4222801;27;20051;-42
2024/01/17 00:03:06;;;;;;;7.47;2.83;;;16.20;60.60;;;;;;4219889;27;20075;-42
2024/01/17 00:05:48;;;;;;;4.55;2.72;;;16.20;60.60;;;;;;4206793;28;20055;-41
2024/01/17 00:08:29;;;;;;;3.88;2.30;;;16.30;60.50;;;;;;4206535;28;20051;-42
2024/01/17 00:11:11;;;;;;;4.97;2.95;;;16.30;60.30;;;;;;4206556;28;20097;-42
2024/01/17 00:13:52;;;;;;;2.95;2.63;;;16.40;60.10;;;;;;4208026;27;20067;-42
2024/01/17 00:16:33;;;;;;;4.85;2.90;;;16.40;59.90;;;;;;4211511;27;20055;-42
2024/01/17 00:19:14;;;;;;;3.53;2.88;;;16.40;59.80;;;;;;4210347;27;20193;-42
2024/01/17 00:21:56;;;;;;;4.32;2.40;;;16.40;59.90;;;;;;4223300;27;20169;-42
2024/01/17 00:24:37;;;;;;;2.17;2.00;;;16.30;60.00;;;;;;4221674;27;20051;-42
2024/01/17 00:27:18;;;;;;;4.30;3.25;;;16.30;59.90;;;;;;4222331;27;20552;-43
2024/01/17 00:29:59;;;;;;;3.47;2.58;;;16.20;60.40;;;;;;4222633;27;20054;-42
2024/01/17 00:32:40;;;;;;;2.88;2.40;;;16.20;60.10;;;;;;4207764;27;20423;-42
2024/01/17 00:35:21;;;;;;;5.03;2.45;;;16.10;60.20;;;;;;4205923;28;20077;-42
2024/01/17 00:38:04;;;;;;;3.60;2.05;;;16.00;60.60;;;;;;4206401;28;20128;-42
2024/01/17 00:40:46;;;;;;;2.58;2.13;;;16.00;60.60;;;;;;4206021;28;20063;-42
2024/01/17 00:43:26;;;;;;;3.00;2.28;;;16.10;60.50;;;;;;4208321;28;20089;-42
2024/01/17 00:46:07;;;;;;;3.10;1.85;;;16.20;60.20;;;;;;4221802;27;20188;-42
2024/01/17 00:48:48;;;;;;;3.17;2.28;;;16.20;60.10;;;;;;4206060;27;20108;-42
2024/01/17 00:51:30;;;;;;;3.53;2.17;;;16.30;59.90;;;;;;4205681;27;20050;-42
2024/01/17 00:54:12;;;;;;;5.75;2.65;;;16.20;59.80;;;;;;4205128;27;20082;-42
2024/01/17 00:56:53;;;;;;;2.65;2.25;;;16.20;59.70;;;;;;4217006;27;20056;-42
2024/01/17 00:59:34;;;;;;;3.45;1.98;;;16.20;59.80;;;;;;4220857;27;20079;-42
2024/01/17 01:02:15;;;;;;;4.78;2.45;;;16.20;60.90;;;;;;4222269;27;20042;-42
2024/01/17 01:04:56;;;;;;;4.00;2.20;;;16.20;59.80;;;;;;4205110;28;20063;-42
2024/01/17 01:07:37;;;;;;;2.53;2.33;;;16.30;59.80;;;;;;4204717;28;20415;-42
2024/01/17 01:10:19;;;;;;;4.30;2.60;;;16.40;59.60;;;;;;4205158;28;20058;-42
2024/01/17 01:13:00;;;;;;;2.92;2.40;;;16.50;59.30;;;;;;4205808;28;20197;-41
2024/01/17 01:15:41;;;;;;;3.63;2.30;;;16.50;59.00;;;;;;4205743;28;20178;-41
2024/01/17 01:18:23;;;;;;;4.00;2.72;;;16.60;58.80;;;;;;4205589;28;20074;-42
2024/01/17 01:21:04;;;;;;;3.42;2.88;;;16.60;59.60;;;;;;4229198;27;20501;-42
2024/01/17 01:23:45;;;;;;;2.30;2.03;;;16.60;58.80;;;;;;4205194;28;20116;-42
2024/01/17 01:26:27;;;;;;;4.40;2.58;;;16.60;58.70;;;;;;4204793;28;20184;-42
2024/01/17 01:29:09;;;;;;;4.03;2.47;;;16.70;58.50;;;;;;4205019;28;20091;-42
2024/01/17 01:31:50;;;;;;;2.88;2.03;;;16.70;58.40;;;;;;4204843;28;20055;-42
2024/01/17 01:34:31;;;;;;;7.18;3.10;;;16.70;58.20;;;;;;4205388;28;20178;-42
2024/01/17 01:37:12;;;;;;;4.10;2.72;;;16.80;58.10;;;;;;4218803;27;20112;-42
2024/01/17 01:39:53;;;;;;;3.05;2.78;;;16.70;58.10;;;;;;4222232;27;20050;-42
2024/01/17 01:42:36;;;;;;;3.35;3.05;;;16.70;58.10;;;;;;4220150;27;20054;-42
2024/01/17 01:45:17;;;;;;;4.43;3.00;;;16.70;58.00;;;;;;4221429;27;20180;-42
2024/01/17 01:47:58;;;;;;;4.07;3.13;;;16.70;58.10;;;;;;4221943;27;20063;-42
2024/01/17 01:50:39;;;;;;;5.00;3.22;;;16.60;58.10;;;;;;4221568;27;20604;-42
2024/01/17 01:53:20;;;;;;;7.03;3.85;;;16.50;58.30;;;;;;4204179;27;20402;-42
2024/01/17 01:56:02;;;;;;;;;;;16.50;58.40;;;;;;4217988;27;20082;-42
2024/01/17 01:58:46;;;;;;;10.45;3.47;;;16.50;58.30;;;;;;4204230;28;20042;-41
2024/01/17 02:01:29;;;;;;;4.60;3.72;;;16.50;58.20;;;;;;4204175;28;20174;-41
2024/01/17 02:04:11;;;;;;;6.70;3.67;;;16.60;58.30;;;;;;4203926;28;20644;-42
2024/01/17 02:06:53;;;;;;;4.28;3.60;;;16.50;58.10;;;;;;4213660;27;20185;-42
2024/01/17 02:09:34;;;;;;;4.10;3.45;;;16.50;58.20;;;;;;4204595;28;20403;-42
2024/01/17 02:12:16;;;;;;;5.80;3.50;;;16.40;58.40;;;;;;4206277;27;20623;-41
2024/01/17 02:14:59;;;;;;;5.35;3.92;;;16.40;58.70;;;;;;4220160;27;20217;-41
2024/01/17 02:17:40;;;;;;;4.80;3.78;;;16.40;58.60;;;;;;4221614;27;20096;-41
2024/01/17 02:20:21;;;;;;;5.95;4.00;;;16.50;58.40;;;;;;4220678;27;20058;-42
2024/01/17 02:23:02;;;;;;;5.32;4.20;;;16.50;58.30;;;;;;4220481;27;20306;-42
2024/01/17 02:25:45;;;;;;;;;;;16.50;58.40;;;;;;4221607;27;20046;-42
2024/01/17 02:28:26;;;;;;;;;;;16.60;58.40;;;;;;4204047;27;19931;-42
2024/01/17 02:31:07;;;;;;;9.25;5.28;;;16.70;58.20;;;;;;4203640;27;19938;-41
2024/01/17 02:33:48;;;;;;;6.30;5.03;;;16.70;57.80;;;;;;4211362;27;20139;-42
2024/01/17 02:36:29;;;;;;;7.68;4.28;;;16.80;57.50;;;;;;4220575;27;20046;-41
2024/01/17 02:39:11;;;;;;;7.40;4.50;;;16.80;57.60;;;;;;4202689;28;20054;-41
2024/01/17 02:41:53;;;;;;;8.05;4.72;;;16.80;57.40;;;;;;4220881;27;20127;-41
2024/01/17 02:44:34;;;;;;;5.80;4.18;;;16.80;57.50;;;;;;4208131;27;20116;-41
2024/01/17 02:47:15;;;;;;;6.30;4.28;;;16.70;57.40;;;;;;4204647;27;20086;-44
2024/01/17 02:49:56;;;;;;;5.28;4.65;;;16.70;57.60;;;;;;4219203;27;20394;-42
2024/01/17 02:52:37;;;;;;;5.72;4.25;;;16.50;57.90;;;;;;4220009;27;20506;-47
2024/01/17 02:55:18;;;;;;;5.68;4.80;;;16.40;58.30;;;;;;4187282;28;20097;-44
2024/01/17 02:58:00;;;;;;;5.78;4.72;;;16.30;58.50;;;;;;4188012;27;20403;-43
2024/01/17 03:00:42;;;;;;;6.65;3.58;;;16.30;58.80;;;;;;4186446;28;20101;-45
2024/01/17 03:03:23;;;;;;;7.07;5.15;;;16.40;58.90;;;;;;4189210;27;20079;-43
2024/01/17 03:06:05;;;;;;;8.25;5.18;;;16.40;58.50;;;;;;4203439;27;20482;-44
2024/01/17 03:08:45;;;;;;;5.32;4.60;;;16.50;58.30;;;;;;4203791;28;20407;-45
2024/01/17 03:11:27;;;;;;;7.15;4.85;;;16.70;58.20;;;;;;4220543;27;20051;-43
2024/01/17 03:14:09;;;;;;;7.80;5.32;;;16.70;57.80;;;;;;4219884;27;20059;-44
2024/01/17 03:16:50;;;;;;;7.20;5.28;;;16.80;57.70;;;;;;4203442;28;20088;-44
2024/01/17 03:19:31;;;;;;;6.65;5.55;;;16.80;57.60;;;;;;4204125;27;20051;-43
2024/01/17 03:22:13;;;;;;;8.05;5.18;;;16.80;57.30;;;;;;4203719;28;20063;-42
2024/01/17 03:24:53;;;;;;;6.75;5.22;;;16.90;57.20;;;;;;4207230;28;20069;-44
2024/01/17 03:27:35;;;;;;;5.80;5.07;;;17.00;57.10;;;;;;4207384;28;20059;-46
2024/01/17 03:30:17;;;;;;;7.90;5.55;;;17.00;57.10;;;;;;4215334;27;20058;-44
2024/01/17 03:32:58;;;;;;;9.80;5.95;;;17.10;56.80;;;;;;4205977;28;20059;-44
2024/01/17 03:35:39;;;;;;;10.30;6.50;;;17.10;56.70;;;;;;4206650;28;20091;-46
2024/01/17 03:38:21;;;;;;;6.50;5.40;;;17.20;56.60;;;;;;4204584;28;20575;-44
2024/01/17 03:41:02;;;;;;;6.40;5.18;;;17.10;56.60;;;;;;4193689;28;20075;-46
2024/01/17 03:43:43;;;;;;;8.27;5.88;;;17.10;56.70;;;;;;4189492;28;20051;-47
2024/01/17 03:46:26;;;;;;;5.95;5.30;;;17.00;56.70;;;;;;4189966;28;20048;-46
2024/01/17 03:49:07;;;;;;;7.85;5.40;;;16.90;57.00;;;;;;4188827;28;20510;-44
2024/01/17 03:51:48;;;;;;;9.10;6.35;;;17.00;57.20;;;;;;4194982;27;20050;-45
2024/01/17 03:54:29;;;;;;;6.13;5.18;;;17.00;57.00;;;;;;4214537;27;20059;-44
2024/01/17 03:57:10;;;;;;;7.10;5.75;;;16.90;57.00;;;;;;4206602;27;20047;-45
2024/01/17 03:59:51;;;;;;;8.02;5.72;;;17.00;57.10;;;;;;4220667;27;20054;-46
2024/01/17 04:02:34;;;;;;;6.47;5.57;;;17.00;57.10;;;;;;4205668;28;20454;-42
2024/01/17 04:05:18;;;;;;;6.60;5.45;;;17.10;57.10;;;;;;4206035;28;20046;-46
2024/01/17 04:07:59;;;;;;;6.50;5.75;;;17.10;56.70;;;;;;4206609;28;20055;-44
2024/01/17 04:10:40;;;;;;;9.13;5.90;;;17.10;56.80;;;;;;4206434;28;20513;-43
2024/01/17 04:13:21;;;;;;;10.75;5.55;;;17.10;56.90;;;;;;4206543;28;20106;-44
2024/01/17 04:16:02;;;;;;;7.05;5.40;;;17.10;56.80;;;;;;4211152;27;20046;-43
2024/01/17 04:18:45;;;;;;;8.20;5.82;;;17.20;56.70;;;;;;4220435;27;20074;-43
2024/01/17 04:21:26;;;;;;;10.45;6.85;;;17.20;56.60;;;;;;4223051;27;20054;-44
2024/01/17 04:24:07;;;;;;;8.30;6.00;;;17.20;56.60;;;;;;4222510;27;20043;-43
2024/01/17 04:26:48;;;;;;;9.25;6.15;;;17.20;56.50;;;;;;4222990;27;20112;-44
2024/01/17 04:29:29;;;;;;;9.05;6.10;;;17.10;56.60;;;;;;4209361;27;20403;-44
2024/01/17 04:32:11;;;;;;;11.85;7.45;;;17.00;56.70;;;;;;4205996;28;20108;-45
2024/01/17 04:34:53;;;;;;;8.65;5.85;;;16.90;56.90;;;;;;4204387;28;20506;-43
2024/01/17 04:37:34;;;;;;;7.65;6.50;;;16.90;57.10;;;;;;4206067;28;20079;-45
2024/01/17 04:40:16;;;;;;;8.65;6.47;;;16.90;56.90;;;;;;4190669;28;20179;-43
2024/01/17 04:42:56;;;;;;;7.90;6.00;;;17.00;57.00;;;;;;4205879;27;20063;-43
2024/01/17 04:45:38;;;;;;;9.80;5.53;;;17.00;56.90;;;;;;4205560;28;20055;-46
2024/01/17 04:48:18;;;;;;;9.35;6.10;;;17.10;56.70;;;;;;4205739;28;20617;-47
2024/01/17 04:51:01;;;;;;;8.95;6.20;;;17.10;56.70;;;;;;4205554;28;20051;-43
2024/01/17 04:53:42;;;;;;;8.55;6.43;;;17.10;57.40;;;;;;4204840;27;20182;-43
2024/01/17 04:56:23;;;;;;;;;;;17.10;56.70;;;;;;4205341;27;20108;-43
2024/01/17 04:59:04;;;;;;;8.77;6.57;;;17.20;56.80;;;;;;4201623;27;20061;-44
2024/01/17 05:01:46;;;;;;;9.07;6.47;;;17.10;56.40;;;;;;4205045;28;20498;-45
2024/01/17 05:04:27;;;;;;;9.60;6.90;;;17.10;56.40;;;;;;4216143;27;20039;-47
2024/01/17 05:07:10;;;;;;;7.28;5.97;;;17.10;56.50;;;;;;4204764;27;20051;-45
2024/01/17 05:09:51;;;;;;;11.65;6.75;;;17.20;56.40;;;;;;4205173;27;20054;-46
2024/01/17 05:12:34;;;;;;;8.70;6.30;;;17.20;57.00;;;;;;4205172;27;20093;-47
2024/01/17 05:15:15;;;;;;;9.98;6.63;;;17.20;56.20;;;;;;4205181;28;20071;-46
2024/01/17 05:17:56;;;;;;;10.68;6.25;;;17.20;56.10;;;;;;4205438;28;20059;-45
2024/01/17 05:20:38;;;;;;;10.45;5.80;;;17.20;56.10;;;;;;4204202;28;20047;-44
2024/01/17 05:23:21;;;;;;;7.25;5.97;;;17.20;56.00;;;;;;4205356;28;20051;-45
2024/01/17 05:26:02;;;;;;;7.82;6.25;;;17.20;56.20;;;;;;4205249;28;20485;-45
2024/01/17 05:28:43;;;;;;;8.70;6.57;;;17.10;56.10;;;;;;4205232;28;20043;-44
2024/01/17 05:31:23;;;;;;;7.80;6.33;;;17.10;56.30;;;;;;4188321;28;20048;-43
2024/01/17 05:34:04;;;;;;;10.73;6.32;;;17.00;56.50;;;;;;4188735;28;20701;-45
2024/01/17 05:36:45;;;;;;;8.55;6.45;;;16.90;56.80;;;;;;4187996;28;20190;-44
2024/01/17 05:39:28;;;;;;;8.13;6.68;;;16.90;57.10;;;;;;4204879;28;20058;-44
2024/01/17 05:42:09;;;;;;;7.47;5.75;;;16.90;56.90;;;;;;4204123;28;20051;-45
2024/01/17 05:44:51;;;;;;;9.73;5.72;;;17.00;56.90;;;;;;4215742;27;20054;-47
2024/01/17 05:47:32;;;;;;;6.18;5.55;;;17.00;56.80;;;;;;4205300;27;20059;-45
2024/01/17 05:50:13;;;;;;;9.35;6.57;;;17.10;56.90;;;;;;4221159;27;20517;-44
2024/01/17 05:52:54;;;;;;;6.25;5.65;;;17.10;56.50;;;;;;4212133;27;20062;-45
2024/01/17 05:55:37;;;;;;;6.72;5.70;;;17.10;56.60;;;;;;4190623;27;20171;-43
2024/01/17 05:58:18;;;;;;;8.65;5.93;;;17.10;56.60;;;;;;4187559;28;20086;-45
2024/01/17 06:00:59;;;;;;;8.68;5.53;;;17.20;57.20;;;;;;4187519;28;20047;-48
2024/01/17 06:03:40;;;;;;;6.55;5.47;;;17.20;56.50;;;;;;4198713;27;20059;-45
2024/01/17 06:06:21;;;;;;;7.60;5.85;;;17.20;56.30;;;;;;4187039;28;20060;-44
2024/01/17 06:09:05;;;;;;;7.88;6.13;;;17.20;56.20;;;;;;4187239;28;20051;-45
2024/01/17 06:11:47;;;;;;;7.07;5.80;;;17.20;56.20;;;;;;4187441;28;20523;-45
2024/01/17 06:14:28;;;;;;;7.28;5.50;;;17.20;56.20;;;;;;4193771;27;20093;-46
2024/01/17 06:17:09;;;;;;;7.65;5.53;;;17.10;56.40;;;;;;4204664;27;20621;-46
2024/01/17 06:19:50;;;;;;;9.90;6.80;;;17.10;56.60;;;;;;4203057;27;20486;-43
2024/01/17 06:22:32;;;;;;;7.60;5.78;;;17.00;56.70;;;;;;4208474;27;20062;-45
2024/01/17 06:25:13;;;;;;;8.02;5.55;;;17.00;56.70;;;;;;4195157;27;20051;-42
2024/01/17 06:27:56;;;;;;;7.38;5.75;;;17.00;56.80;;;;;;4187343;28;20055;-43
2024/01/17 06:30:38;;;;;;;5.90;5.10;;;16.90;56.90;;;;;;4187596;27;20380;-42
2024/01/17 06:33:19;;;;;;;8.43;6.55;;;16.90;57.10;;;;;;4207146;27;20550;-45
2024/01/17 06:35:59;;;;;;;7.20;5.55;;;17.00;56.90;;;;;;4187026;28;20197;-44
2024/01/17 06:38:41;;;;;;;8.60;5.75;;;17.00;56.80;;;;;;4186792;28;20048;-47
2024/01/17 06:41:22;;;;;;;8.15;5.20;;;17.10;56.70;;;;;;4186778;28;20048;-46
2024/01/17 06:44:04;;;;;;;6.75;5.68;;;17.20;56.50;;;;;;4186618;27;20063;-47
2024/01/17 06:46:45;;;;;;;6.40;5.25;;;17.20;56.40;;;;;;4201089;28;20532;-43
2024/01/17 06:49:26;;;;;;;5.78;5.20;;;17.30;56.30;;;;;;4207741;27;20059;-45
2024/01/17 06:52:08;;;;;;;9.38;5.57;;;17.30;56.10;;;;;;4202978;28;20063;-46
2024/01/17 06:54:49;;;;;;;7.05;5.28;;;17.30;56.00;;;;;;4186002;28;20056;-47
2024/01/17 06:57:30;;;;;;;6.82;4.97;;;17.30;56.20;;;;;;4201118;28;20059;-43
2024/01/17 07:00:14;;;;;;;10.25;5.43;;;17.40;56.30;;;;;;4202773;28;20818;-45
2024/01/17 07:02:55;;;;;;;6.22;5.10;;;17.40;56.10;;;;;;4207543;27;20051;-44
2024/01/17 07:05:36;;;;;;;6.05;4.35;;;17.40;56.00;;;;;;4214652;27;20062;-42
2024/01/17 07:08:17;;;;;;;5.35;4.85;;;17.40;55.70;;;;;;4202370;27;20129;-43
2024/01/17 07:10:58;;;;;;;6.40;5.60;;;17.40;55.60;;;;;;4217737;27;20070;-42
2024/01/17 07:13:40;;;;;;;4.93;4.47;;;17.30;55.60;;;;;;4210885;27;20611;-43
2024/01/17 07:16:22;;;;;;;8.10;4.80;;;17.20;55.90;;;;;;4202933;28;20071;-43
2024/01/17 07:19:03;;;;;;;5.20;4.70;;;17.20;56.10;;;;;;4219729;27;20062;-43
2024/01/17 07:21:44;;;;;;;5.85;5.13;;;17.20;56.10;;;;;;4233371;27;20068;-43
2024/01/17 07:24:25;;;;;;;7.05;5.22;;;17.30;55.80;;;;;;4214932;27;20158;-43
2024/01/17 07:27:06;;;;;;;9.38;5.13;;;17.30;55.50;;;;;;4202263;28;20055;-45
2024/01/17 07:29:47;;;;;;;6.80;5.20;;;17.40;55.40;;;;;;4203654;28;20564;-44
2024/01/17 07:32:30;;;;;;;5.50;4.97;;;17.40;55.30;;;;;;4210270;27;20070;-44
2024/01/17 07:35:11;;;;;;;6.40;5.20;;;17.40;55.20;;;;;;4213654;27;20066;-44
2024/01/17 07:37:52;;;;;;;6.85;5.20;;;17.40;55.10;;;;;;4220115;27;20050;-44
2024/01/17 07:40:33;;;;;;;8.13;5.88;;;17.40;55.00;;;;;;4203093;28;20063;-45
2024/01/17 07:43:15;;;;;;;9.38;3.70;;;17.30;55.30;;;;;;4203696;28;20051;-42
2024/01/17 07:45:56;;;;;;;;;;;17.30;56.00;;;;;;4201772;28;20493;-44
2024/01/17 07:48:39;;;;;;;5.72;4.57;;;17.40;55.10;;;;;;4200727;27;19931;-44
2024/01/17 07:51:23;;;;;;;5.82;4.90;;;17.30;53.40;;;;;;4203039;28;20078;-51
2024/01/17 07:54:04;;;;;;;6.18;3.90;;;17.10;52.60;;;;;;4203185;28;20070;-49
2024/01/17 07:56:45;;;;;;;8.77;6.57;;;17.00;51.70;;;;;;4202653;28;20506;-47
2024/01/17 07:59:27;;;;;;;10.65;5.25;;;16.90;50.90;;;;;;4199672;28;20055;-50
2024/01/17 08:02:10;;;;;;;10.68;5.70;;;16.80;50.30;;;;;;4214334;27;20063;-49
2024/01/17 08:04:53;;;;;;;7.50;6.28;;;16.70;50.10;;;;;;4203976;28;20067;-44
2024/01/17 08:07:34;;;;;;;7.93;5.82;;;16.70;49.60;;;;;;4214890;27;20513;-47
2024/01/17 08:10:16;;;;;;;6.95;4.78;;;16.70;49.30;;;;;;4201929;28;20446;-44
2024/01/17 08:12:58;;;;;;;6.28;4.95;;;16.70;49.50;;;;;;4205225;28;20097;-46
2024/01/17 08:15:39;;;;;;;7.45;4.60;;;16.70;50.00;;;;;;4220240;27;20058;-44
2024/01/17 08:18:20;;;;;;;7.30;5.38;;;16.60;49.10;;;;;;4222661;27;20177;-46
2024/01/17 08:21:02;;;;;;;7.00;4.95;;;16.60;48.90;;;;;;4220612;27;20082;-47
2024/01/17 08:23:43;;;;;;;6.75;5.40;;;16.50;48.90;;;;;;4208793;27;20063;-47
2024/01/17 08:26:25;;;;;;;6.90;5.03;;;16.40;48.80;;;;;;4222098;27;20055;-45
2024/01/17 08:29:05;;;;;;;7.30;3.90;;;16.30;48.80;;;;;;4222345;27;20058;-45
2024/01/17 08:31:46;;;;;;;9.35;5.30;;;16.20;48.60;;;;;;4210302;27;20066;-45
2024/01/17 08:34:27;;;;;;;4.95;2.97;;;16.10;48.60;;;;;;4215945;27;20184;-43
2024/01/17 08:37:10;;;;;;;7.68;4.90;;;16.00;48.60;;;;;;4218519;27;20057;-43
2024/01/17 08:39:51;;;;;;;8.68;5.13;;;15.90;48.50;;;;;;4222604;27;20051;-43
2024/01/17 08:42:32;;;;;;;6.05;5.07;;;15.80;48.70;;;;;;4221272;27;20062;-44
2024/01/17 08:45:14;;;;;;;8.10;5.60;;;15.60;48.60;;;;;;4220260;27;20120;-43
2024/01/17 08:47:55;;;;;;;9.90;6.20;;;15.50;49.10;;;;;;4221767;27;20128;-43
2024/01/17 08:50:36;;;;;;;10.60;4.78;;;15.50;49.40;;;;;;4222604;27;20046;-42
2024/01/17 08:53:19;;;;;;;7.53;4.88;;;15.60;49.40;;;;;;4221178;27;20085;-43
2024/01/17 08:56:04;;;;;;;6.35;4.72;;;15.60;49.30;;;;;;4222363;27;20054;-43
2024/01/17 08:58:45;;;;;;;5.60;4.28;;;15.70;49.50;;;;;;4218500;27;20051;-43
2024/01/17 09:01:26;;;;;;;5.97;5.20;;;15.80;49.00;;;;;;4206640;27;20051;-43
2024/01/17 09:04:07;;;;;;;8.27;5.00;;;15.90;48.40;;;;;;4203598;28;20177;-43
2024/01/17 09:06:49;;;;;;;6.43;5.25;;;16.00;48.00;;;;;;4205863;27;20051;-43
2024/01/17 09:09:32;;;;;;;8.80;5.13;;;16.00;47.80;;;;;;4204075;28;20497;-44
2024/01/17 09:12:17;;;;;;;8.88;5.30;;;16.10;47.60;;;;;;4203406;28;20529;-43
2024/01/17 09:14:57;;;;;;;8.90;5.35;;;16.10;47.60;;;;;;4206146;27;20075;-43
2024/01/17 09:17:39;;;;;;;5.25;4.32;;;16.20;47.50;;;;;;4205627;27;20071;-47
2024/01/17 09:20:21;;;;;;;6.43;5.03;;;16.20;47.20;;;;;;4186695;28;20552;-47
2024/01/17 09:23:02;;;;;;;7.60;5.10;;;16.20;46.80;;;;;;4190068;27;20052;-48
2024/01/17 09:25:44;;;;;;;5.53;4.70;;;16.20;46.80;;;;;;4204556;27;20486;-49
2024/01/17 09:28:25;;;;;;;8.50;5.30;;;16.30;47.00;;;;;;4212037;27;20203;-46
2024/01/17 09:31:06;;;;;;;6.95;5.03;;;16.30;46.80;;;;;;4236281;27;20546;-47
2024/01/17 09:33:47;;;;;;;6.15;4.53;;;16.40;46.60;;;;;;4238137;27;20173;-48
2024/01/17 09:36:28;;;;;;;5.50;5.05;;;16.30;46.60;;;;;;4216035;27;20055;-47
2024/01/17 09:39:10;;;;;;;5.35;4.65;;;16.30;46.40;;;;;;4185862;28;20048;-46
2024/01/17 09:41:52;;;;;;;6.63;4.20;;;16.30;46.30;;;;;;4204187;28;20514;-47
2024/01/17 09:44:35;;;;;;;7.78;5.55;;;16.30;46.10;;;;;;4186257;28;20043;-47
2024/01/17 09:47:19;;;;;;;6.43;5.65;;;16.20;45.90;;;;;;4203897;28;20083;-51
2024/01/17 09:50:01;;;;;;;9.20;5.28;;;16.20;45.80;;;;;;4213167;27;20131;-52
2024/01/17 09:52:43;;;;;;;10.20;6.30;;;16.30;46.40;;;;;;4218896;27;20050;-48
2024/01/17 09:55:27;;;;;;;6.18;5.28;;;16.30;45.30;;;;;;4209818;27;20059;-47
2024/01/17 09:58:12;;;;;;;7.45;4.90;;;16.40;45.30;;;;;;4202883;27;20055;-49
2024/01/17 10:00:54;;;;;;;6.97;5.05;;;16.40;45.50;;;;;;4208778;27;20062;-47
2024/01/17 10:03:37;;;;;;;7.57;5.63;;;16.30;45.20;;;;;;4212509;27;20189;-46
2024/01/17 10:06:20;;;;;;;11.68;5.43;;;16.30;44.80;;;;;;4204331;28;20055;-46
2024/01/17 10:09:01;;;;;;;4.50;3.40;;;16.30;44.70;;;;;;4210516;27;20058;-48
2024/01/17 10:11:42;;;;;;;5.95;5.00;;;16.30;45.10;;;;;;4218357;27;20062;-48
2024/01/17 10:14:25;;;;;;;6.03;4.80;;;16.20;45.10;;;;;;4214208;27;20107;-45
2024/01/17 10:17:07;;;;;;;6.28;4.60;;;16.30;45.10;;;;;;4217557;27;20050;-46
2024/01/17 10:19:48;;;;;;;6.40;4.90;;;16.30;45.00;;;;;;4220714;27;20054;-44
2024/01/17 10:22:31;;;;;;;;;;;16.30;44.50;;;;;;4218690;27;20514;-47
2024/01/17 10:25:12;;;;;;;4.82;3.03;;;16.30;44.80;;;;;;4202686;28;19931;-47
2024/01/17 10:27:54;;;;;;;5.55;3.92;;;16.20;45.40;;;;;;4202952;28;20054;-47
2024/01/17 10:30:38;;;;;;;9.80;4.65;;;16.10;45.90;;;;;;4203783;28;20051;-44
2024/01/17 10:33:19;;;;;;;7.88;4.90;;;16.00;45.80;;;;;;4219288;27;20075;-44
2024/01/17 10:36:00;;;;;;;5.97;5.38;;;15.80;45.50;;;;;;4210141;27;20526;-43
2024/01/17 10:38:42;;;;;;;8.90;5.40;;;15.70;45.40;;;;;;4201548;28;20058;-42
2024/01/17 10:41:23;;;;;;;6.95;5.32;;;15.70;45.50;;;;;;4231477;27;20057;-43
2024/01/17 10:44:05;;;;;;;7.25;4.78;;;15.70;45.40;;;;;;4210646;27;20054;-43
2024/01/17 10:46:51;;;;;;;5.88;4.60;;;15.70;45.30;;;;;;4219606;27;20476;-43
2024/01/17 10:49:32;;;;;;;6.80;4.80;;;15.70;45.30;;;;;;4185622;27;20090;-47
2024/01/17 10:52:17;;;;;;;5.55;4.97;;;15.70;45.40;;;;;;4201408;28;20047;-45
2024/01/17 10:55:04;;;;;;;7.40;4.78;;;15.70;45.60;;;;;;4206174;27;20069;-42
2024/01/17 10:57:50;;;;;;;7.32;4.60;;;15.70;45.80;;;;;;4207849;27;20059;-42
2024/01/17 11:00:35;;;;;;;7.90;4.85;;;15.60;45.90;;;;;;4220936;27;20050;-42
2024/01/17 11:03:20;;;;;;;8.82;3.47;;;15.60;45.70;;;;;;4220938;27;20067;-43
2024/01/17 11:06:05;;;;;;;5.82;4.65;;;15.40;45.70;;;;;;4217350;27;20196;-42
2024/01/17 11:08:47;;;;;;;5.70;4.63;;;15.30;45.70;;;;;;4212481;27;20058;-42
2024/01/17 11:11:30;;;;;;;5.32;4.20;;;15.20;45.80;;;;;;4214000;27;20406;-42
2024/01/17 11:14:12;;;;;;;6.20;4.65;;;15.00;46.20;;;;;;4216006;27;20078;-43
2024/01/17 11:16:54;;;;;;;6.72;4.45;;;14.90;46.50;;;;;;4208945;27;20104;-42
2024/01/17 11:19:38;;;;;;;6.03;4.00;;;14.90;46.80;;;;;;4215205;27;20120;-42
2024/01/17 11:22:20;;;;;;;7.35;4.97;;;14.70;46.80;;;;;;4200226;27;20093;-42
2024/01/17 11:25:13;;;;;;;8.07;4.97;;;14.70;47.00;;;;;;4195373;27;20078;-42
2024/01/17 11:28:15;;;;;;;5.45;4.70;;;14.70;46.70;;;;;;4185882;28;20075;-44
2024/01/17 11:31:12;;;;;;;8.73;4.82;;;14.80;46.80;;;;;;4188087;27;20051;-44
2024/01/17 11:33:54;;;;;;;5.95;4.55;;;14.90;46.60;;;;;;4205161;27;20051;-45
2024/01/17 11:36:45;;;;;;;8.18;4.60;;;15.00;46.70;;;;;;4199975;27;20118;-43
2024/01/17 11:39:26;;;;;;;6.18;4.13;;;15.10;46.70;;;;;;4200798;27;20106;-43
2024/01/17 11:42:08;;;;;;;;;;;15.20;46.50;;;;;;4203313;27;20073;-44
2024/01/17 11:44:50;;;;;;;5.75;4.80;;;15.20;46.10;;;;;;4222569;27;19930;-43
2024/01/17 11:47:46;;;;;;;5.07;4.57;;;15.30;45.90;;;;;;4197139;27;20051;-43
2024/01/17 11:50:27;;;;;;;8.07;4.85;;;15.20;45.90;;;;;;4210219;27;20193;-45
2024/01/17 11:53:09;;;;;;;5.93;3.97;;;15.20;46.10;;;;;;4206116;27;20047;-48
2024/01/17 11:55:51;;;;;;;6.88;5.07;;;15.20;45.90;;;;;;4219643;27;20054;-48
2024/01/17 11:58:40;;;;;;;7.15;5.13;;;15.30;46.60;;;;;;4213437;27;20059;-47
2024/01/17 12:01:39;;;;;;;6.22;4.90;;;15.30;46.50;;;;;;4218292;27;20054;-47
2024/01/17 12:04:20;;;;;;;8.20;4.85;;;15.30;47.00;;;;;;4219849;27;20092;-45
2024/01/17 12:07:02;;;;;;;7.28;5.40;;;15.40;47.60;;;;;;4223012;27;20066;-47
2024/01/17 12:09:48;;;;;;;7.35;5.18;;;15.60;47.80;;;;;;4206134;28;20051;-45
2024/01/17 12:12:30;;;;;;;7.85;5.28;;;15.70;47.90;;;;;;4206037;28;20047;-46
2024/01/17 12:15:12;;;;;;;6.60;5.18;;;15.80;47.90;;;;;;4195493;28;20054;-46
2024/01/17 12:17:53;;;;;;;5.63;4.47;;;15.90;48.10;;;;;;4209496;27;20062;-46
2024/01/17 12:20:35;;;;;;;6.38;4.82;;;15.90;48.20;;;;;;4222744;27;20050;-46
2024/01/17 12:23:18;;;;;;;9.55;5.03;;;15.90;48.50;;;;;;4216949;27;20161;-49
2024/01/17 12:26:01;;;;;;;6.82;4.90;;;15.90;48.80;;;;;;4219583;27;20076;-47
2024/01/17 12:28:42;;;;;;;6.90;5.68;;;16.00;49.20;;;;;;4207161;28;20051;-46
2024/01/17 12:31:23;;;;;;;7.13;4.90;;;16.00;49.20;;;;;;4218274;27;20047;-45
2024/01/17 12:34:06;;;;;;;7.47;5.10;;;16.10;49.00;;;;;;4222026;27;20188;-49
2024/01/17 12:36:47;;;;;;;5.57;5.03;;;16.20;49.00;;;;;;4205323;28;20055;-49
2024/01/17 12:39:28;;;;;;;8.25;5.20;;;16.20;49.20;;;;;;4205301;28;20177;-50
2024/01/17 12:42:11;;;;;;;6.30;4.93;;;16.30;49.80;;;;;;4204850;28;20043;-42
2024/01/17 12:44:52;;;;;;;8.05;4.55;;;16.30;49.60;;;;;;4211773;27;20055;-49
2024/01/17 12:47:33;;;;;;;6.43;5.53;;;16.40;50.40;;;;;;4221043;27;20051;-47
2024/01/17 12:50:14;;;;;;;;;;;16.40;49.80;;;;;;4222333;27;20502;-47
2024/01/17 12:52:56;;;;;;;6.43;5.40;;;16.40;51.10;;;;;;4206471;27;19931;-47
2024/01/17 12:55:37;;;;;;;6.60;5.25;;;16.40;50.40;;;;;;4204822;28;20055;-47
2024/01/17 12:58:20;;;;;;;6.97;5.20;;;16.50;50.40;;;;;;4188197;28;20052;-42
2024/01/17 13:01:03;;;;;;;7.78;5.20;;;16.40;50.40;;;;;;4208023;27;20493;-42
2024/01/17 13:03:45;;;;;;;7.93;5.28;;;16.30;50.50;;;;;;4234008;27;20050;-42
2024/01/17 13:06:26;;;;;;;5.53;4.88;;;16.20;50.70;;;;;;4211642;27;20053;-42
2024/01/17 13:09:15;;;;;;;7.97;5.07;;;16.10;51.00;;;;;;4208627;27;20403;-41
2024/01/17 13:11:57;;;;;;;9.32;6.03;;;16.00;51.40;;;;;;4204923;28;20166;-42
2024/01/17 13:14:41;;;;;;;6.95;5.97;;;16.00;51.70;;;;;;4203979;27;20104;-42
2024/01/17 13:17:22;;;;;;;9.30;5.53;;;16.00;51.80;;;;;;4205066;27;20210;-42
2024/01/17 13:20:11;;;;;;;9.40;5.60;;;15.90;51.90;;;;;;4204500;28;20426;-42
2024/01/17 13:22:53;;;;;;;6.72;5.50;;;15.90;52.10;;;;;;4202078;27;20182;-41
2024/01/17 13:25:36;;;;;;;7.68;5.25;;;15.80;52.20;;;;;;4214301;27;20216;-42
2024/01/17 13:28:18;;;;;;;6.15;5.55;;;15.70;52.50;;;;;;4205840;27;20059;-42
2024/01/17 13:31:00;;;;;;;8.75;4.65;;;15.60;52.90;;;;;;4201267;28;20188;-42
2024/01/17 13:33:41;;;;;;;8.18;5.60;;;15.50;53.30;;;;;;4221205;27;20461;-42
2024/01/17 13:36:22;;;;;;;9.07;5.50;;;15.60;53.40;;;;;;4220251;27;20055;-44
2024/01/17 13:39:05;;;;;;;7.93;4.93;;;15.70;53.30;;;;;;4219666;27;20383;-42
2024/01/17 13:41:46;;;;;;;7.13;5.45;;;15.80;53.00;;;;;;4195572;27;20052;-41
2024/01/17 13:44:28;;;;;;;8.80;5.18;;;16.00;52.90;;;;;;4197234;27;20051;-46
2024/01/17 13:47:10;;;;;;;5.75;4.65;;;16.10;52.80;;;;;;4204862;27;20058;-47
2024/01/17 13:49:52;;;;;;;6.22;4.93;;;16.10;52.60;;;;;;4187800;28;20198;-47
2024/01/17 13:52:36;;;;;;;8.52;5.18;;;16.20;52.60;;;;;;4189786;27;20182;-46
2024/01/17 13:55:19;;;;;;;7.13;5.32;;;16.20;52.60;;;;;;4204335;27;20055;-46
2024/01/17 13:57:59;;;;;;;7.97;5.50;;;16.30;52.50;;;;;;4204145;27;20190;-47
2024/01/17 14:00:42;;;;;;;7.38;5.05;;;16.30;52.40;;;;;;4219802;27;20054;-46
2024/01/17 14:03:25;;;;;;;5.47;4.95;;;16.40;52.40;;;;;;4220652;27;20116;-45